Time;durP1;ratioP1;P1;durP2;ratioP2;P2;SDS_P1;SDS_P2;PMS_P1;PMS_P2;Temp;Humidity;BMP_temperature;BMP_pressure;BME280_temperature;BME280_humidity;BME280_pressure;Samples;Min_cycle;Max_cycle;Signal;HPM_P1;HPM_P2
2022/06/24 00:00:16;;;;;;;18.50;12.80;;;22.80;99.90;;;;;;5053337;28;20035;-77
2022/06/24 00:02:48;;;;;;;19.27;14.27;;;22.80;99.90;;;;;;5071065;28;20388;-77
2022/06/24 00:05:14;;;;;;;18.15;13.20;;;22.80;99.90;;;;;;5071279;28;20039;-78
2022/06/24 00:07:50;;;;;;;17.58;13.18;;;22.80;99.90;;;;;;5070986;28;20017;-78
2022/06/24 00:10:22;;;;;;;21.92;13.35;;;22.80;99.90;;;;;;5071411;28;20241;-78
2022/06/24 00:12:50;;;;;;;17.67;13.20;;;22.80;99.90;;;;;;5071348;28;20421;-78
2022/06/24 00:15:26;;;;;;;15.90;12.98;;;22.80;99.90;;;;;;5071105;28;20017;-78
2022/06/24 00:17:52;;;;;;;18.10;13.48;;;22.80;99.90;;;;;;5070641;28;20040;-77
2022/06/24 00:20:19;;;;;;;19.23;12.80;;;22.80;99.90;;;;;;5071121;28;20020;-78
2022/06/24 00:22:47;;;;;;;18.92;13.45;;;22.80;99.90;;;;;;5070834;28;20078;-78
2022/06/24 00:25:18;;;;;;;29.58;14.85;;;22.80;99.90;;;;;;5070870;28;20060;-79
2022/06/24 00:27:59;;;;;;;32.75;15.93;;;22.80;99.90;;;;;;5070611;28;20048;-82
2022/06/24 00:30:24;;;;;;;30.02;17.23;;;22.70;99.90;;;;;;5052440;28;20025;-82
2022/06/24 00:32:51;;;;;;;32.55;17.38;;;22.60;99.90;;;;;;5070634;28;20031;-81
2022/06/24 00:35:18;;;;;;;29.92;19.17;;;22.40;99.90;;;;;;5070492;28;20052;-81
2022/06/24 00:37:45;;;;;;;39.45;20.67;;;22.30;99.90;;;;;;5070283;28;20483;-82
2022/06/24 00:40:11;;;;;;;38.85;22.63;;;22.20;99.90;;;;;;5072529;28;20043;-83
2022/06/24 00:42:45;;;;;;;41.67;23.27;;;22.10;99.90;;;;;;5080661;28;20021;-82
2022/06/24 00:45:20;;;;;;;37.50;24.35;;;22.00;99.90;;;;;;5086600;28;20099;-79
2022/06/24 00:47:47;;;;;;;39.88;24.77;;;21.90;99.90;;;;;;5075167;28;20029;-78
2022/06/24 00:50:27;;;;;;;39.60;26.60;;;21.70;99.90;;;;;;5071650;28;20029;-78
2022/06/24 00:52:58;;;;;;;41.78;27.55;;;21.70;99.90;;;;;;5071265;28;20024;-77
2022/06/24 00:55:34;;;;;;;49.50;30.40;;;21.70;99.90;;;;;;5070498;28;20503;-77
2022/06/24 00:58:00;;;;;;;47.72;31.58;;;21.70;99.90;;;;;;5070183;28;20024;-77
2022/06/24 01:00:28;;;;;;;56.28;32.55;;;21.70;99.90;;;;;;5047881;28;20055;-77
2022/06/24 01:03:02;;;;;;;39.90;28.27;;;21.60;99.90;;;;;;5068263;28;20024;-77
2022/06/24 01:05:29;;;;;;;41.90;27.52;;;21.60;99.90;;;;;;5061385;28;20039;-76
2022/06/24 01:07:56;;;;;;;40.53;28.38;;;21.50;99.90;;;;;;5070239;28;20087;-77
2022/06/24 01:10:22;;;;;;;43.00;27.70;;;21.50;99.90;;;;;;5070240;28;20027;-77
2022/06/24 01:12:48;;;;;;;38.35;27.05;;;21.50;99.90;;;;;;5070204;28;20032;-77
2022/06/24 01:15:14;;;;;;;48.17;31.08;;;21.50;99.90;;;;;;5070432;28;20024;-77
2022/06/24 01:17:39;;;;;;;44.45;30.80;;;21.50;99.90;;;;;;5069936;28;20032;-77
2022/06/24 01:20:09;;;;;;;48.90;31.25;;;21.50;99.90;;;;;;5069966;28;20538;-78
2022/06/24 01:22:35;;;;;;;51.80;33.28;;;21.50;99.90;;;;;;5070481;28;20380;-77
2022/06/24 01:25:01;;;;;;;44.42;31.08;;;21.50;99.90;;;;;;5070182;28;20170;-77
2022/06/24 01:27:27;;;;;;;48.78;31.35;;;21.50;99.90;;;;;;5069709;28;20127;-77
2022/06/24 01:29:52;;;;;;;48.15;30.10;;;21.50;99.90;;;;;;5070216;28;20033;-77
2022/06/24 01:32:18;;;;;;;39.83;28.85;;;21.50;99.90;;;;;;5069884;28;20385;-76
2022/06/24 01:34:43;;;;;;;41.58;29.20;;;21.40;99.90;;;;;;5070081;28;20025;-77
2022/06/24 01:37:10;;;;;;;42.83;29.88;;;21.50;99.90;;;;;;5069529;28;20024;-77
2022/06/24 01:39:35;;;;;;;42.45;29.25;;;21.40;99.90;;;;;;5070205;28;20249;-77
2022/06/24 01:42:01;;;;;;;49.78;32.40;;;21.40;99.90;;;;;;5069963;28;20476;-77
2022/06/24 01:44:27;;;;;;;39.63;28.33;;;21.30;99.90;;;;;;5069821;28;20021;-77
2022/06/24 01:46:52;;;;;;;46.05;30.08;;;21.30;99.90;;;;;;5069890;28;20381;-77
2022/06/24 01:49:18;;;;;;;45.97;30.27;;;21.30;99.90;;;;;;5073261;28;20027;-76
2022/06/24 01:51:47;;;;;;;39.17;26.58;;;21.20;99.90;;;;;;5073438;28;20158;-76
2022/06/24 01:54:13;;;;;;;40.03;27.73;;;21.30;99.90;;;;;;5073612;28;20055;-76
2022/06/24 01:56:39;;;;;;;40.15;27.55;;;21.20;99.90;;;;;;5073324;28;20029;-77
2022/06/24 01:59:04;;;;;;;41.53;28.90;;;21.10;99.90;;;;;;5073206;28;20251;-76
2022/06/24 02:01:30;;;;;;;44.70;30.27;;;21.10;99.90;;;;;;5073267;28;20369;-76
2022/06/24 02:03:55;;;;;;;44.63;31.52;;;21.00;99.90;;;;;;5073173;28;20089;-76
2022/06/24 02:06:21;;;;;;;50.40;33.35;;;21.00;99.90;;;;;;5072857;28;20104;-77
2022/06/24 02:08:47;;;;;;;52.28;35.05;;;20.90;99.90;;;;;;5073249;28;20028;-77
2022/06/24 02:13:59;;;;;;;34.93;24.53;;;20.90;99.90;;;;;;5073695;28;20032;-77
2022/06/24 02:16:25;;;;;;;35.40;23.60;;;20.90;99.90;;;;;;5072984;28;20024;-76
2022/06/24 02:18:53;;;;;;;31.77;21.45;;;20.80;99.90;;;;;;5073050;28;20028;-76
2022/06/24 02:21:20;;;;;;;28.65;19.83;;;20.80;99.90;;;;;;5073064;28;20032;-77
2022/06/24 02:23:46;;;;;;;27.20;18.13;;;20.80;99.90;;;;;;5072988;28;20025;-77
2022/06/24 02:26:12;;;;;;;26.83;18.55;;;20.80;99.90;;;;;;5072748;28;20420;-77
2022/06/24 02:28:38;;;;;;;28.73;18.75;;;20.80;99.90;;;;;;5072862;28;20057;-77
2022/06/24 02:31:04;;;;;;;26.92;19.20;;;20.80;99.90;;;;;;5072914;28;20013;-77
2022/06/24 02:33:30;;;;;;;26.70;18.35;;;20.80;99.90;;;;;;5072949;28;20028;-77
2022/06/24 02:35:56;;;;;;;26.83;19.15;;;20.80;99.90;;;;;;5072698;28;20071;-77
2022/06/24 02:38:21;;;;;;;25.83;19.02;;;20.80;99.90;;;;;;5072972;28;20435;-76
2022/06/24 02:40:47;;;;;;;26.48;19.52;;;20.80;99.90;;;;;;5072640;28;20157;-77
2022/06/24 02:43:24;;;;;;;26.45;19.13;;;20.80;99.90;;;;;;5073247;28;20381;-77
2022/06/24 02:45:58;;;;;;;27.00;18.63;;;20.80;99.90;;;;;;5072665;28;20473;-77
2022/06/24 02:48:25;;;;;;;24.25;17.70;;;20.90;99.90;;;;;;5069174;28;20116;-77
2022/06/24 02:50:56;;;;;;;19.83;16.40;;;20.80;99.90;;;;;;5069104;28;20017;-77
2022/06/24 02:53:24;;;;;;;24.00;16.17;;;20.80;99.90;;;;;;5052524;28;20025;-77
2022/06/24 02:55:52;;;;;;;20.98;16.00;;;20.70;99.90;;;;;;5057144;28;20021;-77
2022/06/24 02:58:18;;;;;;;23.55;17.58;;;20.70;99.90;;;;;;5070330;28;20507;-77
2022/06/24 03:00:44;;;;;;;22.48;17.15;;;20.60;99.90;;;;;;5058855;28;20016;-77
2022/06/24 03:03:12;;;;;;;24.80;17.45;;;20.60;99.90;;;;;;5072213;28;20036;-77
2022/06/24 03:05:38;;;;;;;21.17;14.90;;;20.60;99.90;;;;;;5071808;28;20031;-77
2022/06/24 03:08:04;;;;;;;19.85;15.05;;;20.50;99.90;;;;;;5059707;28;20033;-77
2022/06/24 03:10:30;;;;;;;20.40;15.73;;;20.50;99.90;;;;;;5069353;28;20476;-76
2022/06/24 03:12:56;;;;;;;18.80;14.75;;;20.40;99.90;;;;;;5072265;28;20031;-76
2022/06/24 03:15:21;;;;;;;25.95;17.27;;;20.40;99.90;;;;;;5072166;28;20021;-77
2022/06/24 03:17:47;;;;;;;29.63;20.90;;;20.40;99.90;;;;;;5071851;28;20480;-77
2022/06/24 03:20:13;;;;;;;32.40;22.30;;;20.40;99.90;;;;;;5054353;28;20452;-77
2022/06/24 03:22:39;;;;;;;31.90;24.00;;;20.30;99.90;;;;;;5072071;28;20017;-77
2022/06/24 03:25:06;;;;;;;33.75;24.17;;;20.30;99.90;;;;;;5060852;28;20123;-78
2022/06/24 03:27:32;;;;;;;33.00;25.00;;;20.30;99.90;;;;;;5068676;28;20048;-76
2022/06/24 03:29:57;;;;;;;33.38;25.10;;;20.30;99.90;;;;;;5071416;28;20033;-76
2022/06/24 03:32:23;;;;;;;37.72;25.20;;;20.30;99.90;;;;;;5071569;28;20028;-77
2022/06/24 03:34:49;;;;;;;37.10;26.38;;;20.30;99.90;;;;;;5071828;28;20067;-76
2022/06/24 03:37:14;;;;;;;36.65;27.50;;;20.30;99.90;;;;;;5071364;28;20143;-76
2022/06/24 03:39:40;;;;;;;39.20;28.17;;;20.30;99.90;;;;;;5066418;28;20393;-77
2022/06/24 03:42:05;;;;;;;43.67;29.95;;;20.30;99.90;;;;;;5062409;28;20119;-76
2022/06/24 03:44:31;;;;;;;45.10;30.23;;;20.30;99.90;;;;;;5071102;28;20107;-76
2022/06/24 03:46:57;;;;;;;41.58;28.88;;;20.30;99.90;;;;;;5071203;28;20021;-76
2022/06/24 03:49:23;;;;;;;39.28;27.90;;;20.20;99.90;;;;;;5053354;28;20029;-76
2022/06/24 03:51:48;;;;;;;42.13;29.05;;;20.30;99.90;;;;;;5071158;28;20024;-76
2022/06/24 03:54:14;;;;;;;41.03;29.00;;;20.30;99.90;;;;;;5071036;28;20540;-76
2022/06/24 03:56:40;;;;;;;40.83;28.20;;;20.30;99.90;;;;;;5070504;28;20064;-76
2022/06/24 03:59:05;;;;;;;38.13;27.52;;;20.30;99.90;;;;;;5061332;28;20017;-76
2022/06/24 04:01:31;;;;;;;46.08;29.83;;;20.30;99.90;;;;;;5066442;28;20082;-76
2022/06/24 04:03:57;;;;;;;41.90;29.05;;;20.30;99.90;;;;;;5071292;28;20411;-76
2022/06/24 04:06:22;;;;;;;38.83;27.75;;;20.30;99.90;;;;;;5070876;28;20431;-76
2022/06/24 04:08:48;;;;;;;40.83;28.58;;;20.30;99.90;;;;;;5070928;28;20025;-76
2022/06/24 04:11:17;;;;;;;47.15;31.77;;;20.30;99.90;;;;;;5070480;28;20495;-76
2022/06/24 04:13:43;;;;;;;41.50;28.13;;;20.40;99.90;;;;;;5070846;28;20044;-76
2022/06/24 04:16:09;;;;;;;37.47;25.10;;;20.40;99.90;;;;;;5053047;28;20067;-76
2022/06/24 04:18:34;;;;;;;31.48;23.65;;;20.40;99.90;;;;;;5061400;28;20560;-76
2022/06/24 04:21:01;;;;;;;31.83;23.92;;;20.40;99.90;;;;;;5070877;28;20021;-76
2022/06/24 04:23:26;;;;;;;31.95;24.40;;;20.40;99.90;;;;;;5070421;28;20039;-77
2022/06/24 04:25:53;;;;;;;33.08;22.88;;;20.40;99.90;;;;;;5064806;28;20495;-76
2022/06/24 04:28:18;;;;;;;32.63;23.85;;;20.40;99.90;;;;;;5052612;28;20413;-76
2022/06/24 04:30:44;;;;;;;33.65;24.48;;;20.40;99.90;;;;;;5070500;28;20021;-76
2022/06/24 04:33:10;;;;;;;34.25;24.58;;;20.40;99.90;;;;;;5070745;28;20413;-76
2022/06/24 04:35:36;;;;;;;33.40;25.05;;;20.40;99.90;;;;;;5070609;28;20028;-76
2022/06/24 04:38:02;;;;;;;32.22;24.15;;;20.40;99.90;;;;;;5070201;28;20023;-76
2022/06/24 04:40:27;;;;;;;33.80;23.88;;;20.50;99.90;;;;;;5070862;28;20480;-76
2022/06/24 04:42:53;;;;;;;34.50;25.23;;;20.40;99.90;;;;;;5070566;28;20032;-76
2022/06/24 04:45:19;;;;;;;35.88;26.33;;;20.40;99.90;;;;;;5071270;28;20104;-76
2022/06/24 04:47:45;;;;;;;31.42;24.75;;;20.40;99.90;;;;;;5070041;28;20039;-76
2022/06/24 04:50:11;;;;;;;35.30;25.88;;;20.40;99.90;;;;;;5070588;28;20021;-76
2022/06/24 04:52:38;;;;;;;33.05;25.75;;;20.30;99.90;;;;;;5070383;28;20028;-76
2022/06/24 04:55:04;;;;;;;33.90;25.58;;;20.30;99.90;;;;;;5069877;28;20369;-76
2022/06/24 04:57:30;;;;;;;41.22;28.48;;;20.30;99.90;;;;;;5056140;28;20052;-76
2022/06/24 04:59:56;;;;;;;40.22;29.83;;;20.30;99.90;;;;;;5056339;28;20073;-76
2022/06/24 05:02:21;;;;;;;45.72;31.95;;;20.30;99.90;;;;;;5058922;28;20115;-76
2022/06/24 05:04:47;;;;;;;49.38;35.67;;;20.30;99.90;;;;;;5070507;28;20032;-76
2022/06/24 05:07:13;;;;;;;54.42;36.70;;;20.30;99.90;;;;;;5070093;28;20136;-76
2022/06/24 05:09:39;;;;;;;51.92;36.55;;;20.20;99.90;;;;;;5070581;28;20044;-76
2022/06/24 05:12:05;;;;;;;60.58;39.55;;;20.20;99.90;;;;;;5070030;28;20025;-76
2022/06/24 05:14:31;;;;;;;59.47;40.60;;;20.20;99.90;;;;;;5070186;28;20430;-76
2022/06/24 05:16:59;;;;;;;62.95;42.40;;;20.20;99.90;;;;;;5069582;28;20104;-76
2022/06/24 05:19:25;;;;;;;66.18;43.28;;;20.20;99.90;;;;;;5059743;28;20028;-76
2022/06/24 05:21:51;;;;;;;65.80;43.55;;;20.20;99.90;;;;;;5070067;28;20380;-76
2022/06/24 05:24:17;;;;;;;71.60;46.47;;;20.10;99.90;;;;;;5074182;28;20516;-76
2022/06/24 05:26:43;;;;;;;67.57;47.00;;;20.10;99.90;;;;;;5074682;28;20544;-77
2022/06/24 05:29:10;;;;;;;73.40;46.97;;;20.10;99.90;;;;;;5075272;28;20058;-76
2022/06/24 05:31:36;;;;;;;73.28;48.30;;;20.10;99.90;;;;;;5074581;28;20074;-76
2022/06/24 05:34:01;;;;;;;69.13;48.03;;;20.10;99.90;;;;;;5074647;28;20020;-77
2022/06/24 05:36:27;;;;;;;74.47;49.38;;;20.10;99.90;;;;;;5067192;28;20027;-79
2022/06/24 05:38:53;;;;;;;76.72;49.90;;;20.10;99.90;;;;;;5073435;28;20548;-81
2022/06/24 05:41:19;;;;;;;74.07;48.50;;;20.10;99.90;;;;;;5054537;28;20025;-80
2022/06/24 05:43:45;;;;;;;70.50;44.92;;;20.10;99.90;;;;;;5072842;28;20032;-78
2022/06/24 05:46:11;;;;;;;62.95;39.83;;;20.10;99.90;;;;;;5066128;28;20087;-75
2022/06/24 05:48:37;;;;;;;39.92;27.17;;;20.00;99.90;;;;;;5057908;28;20477;-75
2022/06/24 05:51:11;;;;;;;34.58;24.42;;;20.00;99.90;;;;;;5066147;28;20060;-74
2022/06/24 05:56:23;;;;;;;36.47;24.15;;;19.90;99.90;;;;;;5065212;28;20079;-74
2022/06/24 05:58:48;;;;;;;36.15;25.80;;;19.90;99.90;;;;;;5073005;28;20016;-77
2022/06/24 06:01:14;;;;;;;41.47;25.80;;;19.90;99.90;;;;;;5071928;28;20527;-78
2022/06/24 06:03:40;;;;;;;35.95;25.25;;;19.80;99.90;;;;;;5063740;28;20025;-76
2022/06/24 06:06:07;;;;;;;37.80;26.13;;;19.80;99.90;;;;;;5051808;28;20028;-77
2022/06/24 06:08:34;;;;;;;40.58;26.75;;;19.70;99.90;;;;;;5066500;28;20422;-77
2022/06/24 06:10:59;;;;;;;39.42;26.50;;;19.80;99.90;;;;;;5073907;28;20081;-77
2022/06/24 06:13:25;;;;;;;36.55;25.17;;;19.70;99.90;;;;;;5072979;28;20028;-77
2022/06/24 06:15:51;;;;;;;36.03;25.13;;;19.70;99.90;;;;;;5073157;28;20036;-77
2022/06/24 06:18:16;;;;;;;36.38;24.60;;;19.70;99.90;;;;;;5073059;28;20025;-77
2022/06/24 06:20:42;;;;;;;36.75;24.95;;;19.70;99.90;;;;;;5055192;28;20023;-77
2022/06/24 06:23:08;;;;;;;35.50;24.85;;;19.70;99.90;;;;;;5073185;28;20107;-77
2022/06/24 06:25:34;;;;;;;34.67;25.38;;;19.60;99.90;;;;;;5072976;28;20393;-76
2022/06/24 06:28:01;;;;;;;35.92;24.35;;;19.70;99.90;;;;;;5073007;28;20110;-77
2022/06/24 06:30:30;;;;;;;34.70;24.35;;;19.60;99.90;;;;;;5071308;28;20029;-76
2022/06/24 06:32:56;;;;;;;33.97;22.73;;;19.60;99.90;;;;;;5073451;28;20090;-80
2022/06/24 06:35:22;;;;;;;32.38;20.33;;;19.60;99.90;;;;;;5080370;28;20037;-81
2022/06/24 06:37:47;;;;;;;30.33;22.10;;;19.60;99.90;;;;;;5082451;28;20025;-79
2022/06/24 06:40:13;;;;;;;33.38;21.90;;;19.60;99.90;;;;;;5071296;28;20024;-80
2022/06/24 06:42:38;;;;;;;28.08;18.27;;;19.60;99.90;;;;;;5090517;28;20033;-80
2022/06/24 06:45:05;;;;;;;26.73;17.35;;;19.70;99.90;;;;;;5091774;28;20051;-80
2022/06/24 06:47:30;;;;;;;22.25;15.75;;;19.70;99.90;;;;;;5082236;28;20025;-80
2022/06/24 06:49:56;;;;;;;21.73;15.48;;;19.70;99.90;;;;;;5094789;28;20028;-80
2022/06/24 06:52:22;;;;;;;20.45;15.10;;;19.70;99.90;;;;;;5091307;28;20479;-80
2022/06/24 06:54:47;;;;;;;22.88;14.90;;;19.80;99.90;;;;;;5069876;28;20031;-80
2022/06/24 06:57:13;;;;;;;27.75;15.90;;;19.80;99.90;;;;;;5088133;28;20261;-80
2022/06/24 06:59:38;;;;;;;22.90;15.32;;;19.80;99.90;;;;;;5078583;28;20039;-80
2022/06/24 07:02:04;;;;;;;23.52;15.43;;;19.90;99.90;;;;;;5069495;28;20111;-81
2022/06/24 07:04:30;;;;;;;20.15;15.07;;;19.90;99.90;;;;;;5090981;28;20035;-80
2022/06/24 07:06:55;;;;;;;26.63;15.82;;;20.00;99.90;;;;;;5074413;28;20383;-78
2022/06/24 07:09:21;;;;;;;24.23;15.63;;;20.00;99.90;;;;;;5071515;28;20029;-79
2022/06/24 07:11:46;;;;;;;25.73;15.10;;;20.10;99.90;;;;;;5073320;28;20099;-79
2022/06/24 07:14:12;;;;;;;20.58;15.32;;;20.20;99.90;;;;;;5061501;28;20435;-78
2022/06/24 07:16:38;;;;;;;23.13;14.52;;;20.20;99.90;;;;;;5071509;28;20028;-76
2022/06/24 07:19:03;;;;;;;26.67;14.18;;;20.30;99.90;;;;;;5071851;28;20078;-75
2022/06/24 07:21:29;;;;;;;22.67;14.07;;;20.30;99.90;;;;;;5071469;28;20512;-76
2022/06/24 07:23:55;;;;;;;23.88;14.52;;;20.40;99.90;;;;;;5071311;28;20488;-75
2022/06/24 07:26:20;;;;;;;26.98;14.25;;;20.40;99.90;;;;;;5071316;28;20021;-76
2022/06/24 07:28:46;;;;;;;22.50;14.73;;;20.50;99.90;;;;;;5053634;28;20048;-76
2022/06/24 07:31:20;;;;;;;24.33;15.10;;;20.50;99.90;;;;;;5071687;28;20033;-76
2022/06/24 07:33:47;;;;;;;29.55;17.35;;;20.50;99.90;;;;;;5070275;28;20385;-78
2022/06/24 07:36:13;;;;;;;28.92;17.98;;;20.50;99.90;;;;;;5071571;28;20480;-79
2022/06/24 07:38:39;;;;;;;25.35;18.60;;;20.50;99.90;;;;;;5071621;28;20221;-79
2022/06/24 07:41:04;;;;;;;32.95;19.20;;;20.60;99.90;;;;;;5071996;28;20036;-78
2022/06/24 07:43:30;;;;;;;27.85;20.02;;;20.60;99.90;;;;;;5084964;28;20040;-79
2022/06/24 07:45:56;;;;;;;33.70;21.52;;;20.60;99.90;;;;;;5076782;28;20469;-84
2022/06/24 07:48:22;;;;;;;32.17;21.52;;;20.70;99.90;;;;;;5056087;28;20013;-81
2022/06/24 07:50:48;;;;;;;37.53;22.65;;;20.70;99.90;;;;;;5062812;28;20013;-83
2022/06/24 07:53:14;;;;;;;32.30;22.05;;;20.70;99.90;;;;;;5064465;28;20036;-82
2022/06/24 07:58:25;;;;;;;29.27;21.53;;;20.90;99.90;;;;;;5058539;28;20083;-78
2022/06/24 08:00:50;;;;;;;34.30;21.88;;;21.00;99.90;;;;;;5069757;28;20016;-87
2022/06/24 08:03:16;;;;;;;32.05;21.23;;;21.00;99.90;;;;;;5072443;28;20047;-85
2022/06/24 08:05:42;;;;;;;32.75;22.83;;;21.10;99.90;;;;;;5063080;28;20226;-84
2022/06/24 08:08:08;;;;;;;30.52;22.90;;;21.00;99.90;;;;;;5059479;28;20021;-85
2022/06/24 08:10:34;;;;;;;35.05;23.85;;;21.00;99.90;;;;;;5080442;28;20033;-87
2022/06/24 08:13:00;;;;;;;34.00;23.70;;;21.00;99.90;;;;;;5075767;28;20508;-84
2022/06/24 08:15:25;;;;;;;33.17;23.23;;;21.00;99.90;;;;;;5074974;28;20021;-85
2022/06/24 08:17:51;;;;;;;34.17;24.02;;;21.10;99.90;;;;;;5057916;28;20263;-85
2022/06/24 08:20:16;;;;;;;36.33;24.35;;;21.20;99.90;;;;;;5073398;28;20100;-85
2022/06/24 08:22:42;;;;;;;41.05;26.90;;;21.20;99.90;;;;;;5068556;28;20058;-85
2022/06/24 08:25:08;;;;;;;33.70;22.88;;;21.30;99.90;;;;;;5072657;28;20054;-85
2022/06/24 08:27:34;;;;;;;34.35;20.77;;;21.30;99.90;;;;;;5053925;28;20101;-84
2022/06/24 08:30:00;;;;;;;33.70;21.38;;;21.30;99.90;;;;;;5071482;28;20024;-83
2022/06/24 08:32:25;;;;;;;32.95;22.88;;;21.30;99.90;;;;;;5070000;28;20032;-82
2022/06/24 08:34:52;;;;;;;34.13;22.73;;;21.30;99.90;;;;;;5061300;28;20025;-84
2022/06/24 08:37:17;;;;;;;36.42;24.08;;;21.40;99.90;;;;;;5068376;28;20036;-83
2022/06/24 08:39:43;;;;;;;31.73;23.05;;;21.40;99.90;;;;;;5066332;28;20020;-84
2022/06/24 08:42:12;;;;;;;34.25;22.52;;;21.40;99.90;;;;;;5075030;28;20066;-84
2022/06/24 08:44:39;;;;;;;37.08;24.00;;;21.40;99.90;;;;;;5061988;28;20040;-84
2022/06/24 08:47:04;;;;;;;34.67;23.40;;;21.50;99.90;;;;;;5070894;28;20040;-82
2022/06/24 08:49:33;;;;;;;38.30;23.15;;;21.60;99.90;;;;;;5071342;28;20074;-82
2022/06/24 08:52:00;;;;;;;35.83;23.83;;;21.70;99.90;;;;;;5071592;28;20470;-84
2022/06/24 08:54:30;;;;;;;37.22;23.98;;;21.70;99.90;;;;;;5071186;28;20025;-84
2022/06/24 08:56:56;;;;;;;39.03;24.35;;;21.60;99.90;;;;;;5071379;28;20107;-82
2022/06/24 08:59:21;;;;;;;38.03;23.83;;;21.60;99.90;;;;;;5060475;28;20436;-82
2022/06/24 09:01:47;;;;;;;32.58;22.48;;;21.60;99.90;;;;;;5051281;28;20029;-85
2022/06/24 09:04:13;;;;;;;34.80;21.98;;;21.70;99.90;;;;;;5063098;28;20029;-86
2022/06/24 09:06:41;;;;;;;31.23;20.70;;;21.80;99.90;;;;;;5061285;28;20036;-84
2022/06/24 09:09:07;;;;;;;32.78;21.38;;;21.80;99.90;;;;;;5045245;28;20493;-78
2022/06/24 09:11:57;;;;;;;32.50;20.58;;;21.90;99.90;;;;;;5070672;28;20036;-83
2022/06/24 09:14:42;;;;;;;32.15;20.10;;;22.00;99.90;;;;;;5046867;28;20118;-89
2022/06/24 09:17:09;;;;;;;29.70;20.13;;;22.10;99.90;;;;;;5070279;28;20033;-88
2022/06/24 09:19:36;;;;;;;31.27;20.10;;;22.20;99.90;;;;;;5070977;28;20637;-83
2022/06/24 09:22:02;;;;;;;29.67;19.58;;;22.30;99.90;;;;;;5068550;28;20043;-82
2022/06/24 09:24:51;;;;;;;31.88;20.15;;;22.50;99.90;;;;;;5052275;28;20029;-83
2022/06/24 09:27:16;;;;;;;27.35;18.17;;;22.70;99.90;;;;;;5065750;28;20020;-84
2022/06/24 09:29:48;;;;;;;29.88;20.48;;;22.70;99.90;;;;;;5066772;28;20035;-82
2022/06/24 09:32:14;;;;;;;29.70;20.02;;;22.80;99.90;;;;;;5068078;28;20043;-88
2022/06/24 09:35:05;;;;;;;29.75;19.90;;;22.90;99.90;;;;;;5061748;28;20013;-88
2022/06/24 09:37:37;;;;;;;27.52;18.50;;;23.00;99.90;;;;;;5065388;28;20021;-85
2022/06/24 09:40:27;;;;;;;28.40;17.23;;;23.10;99.90;;;;;;5083989;28;20017;-82
2022/06/24 09:43:00;;;;;;;21.92;15.32;;;23.30;99.90;;;;;;5062965;28;20025;-84
2022/06/24 09:45:46;;;;;;;23.35;15.60;;;23.30;99.90;;;;;;5066456;28;20548;-82
2022/06/24 09:48:29;;;;;;;19.48;13.85;;;23.20;99.90;;;;;;5072207;28;20041;-83
2022/06/24 09:50:58;;;;;;;18.13;12.63;;;23.30;99.90;;;;;;5078688;28;20013;-83
2022/06/24 09:53:26;;;;;;;20.00;14.55;;;23.40;99.90;;;;;;5057544;28;20528;-83
2022/06/24 09:55:54;;;;;;;20.80;13.35;;;23.40;99.90;;;;;;5072703;28;20047;-83
2022/06/24 09:58:21;;;;;;;20.60;14.05;;;23.50;99.90;;;;;;5081263;28;20047;-83
2022/06/24 10:00:50;;;;;;;25.30;16.98;;;23.70;99.90;;;;;;5078571;28;20046;-82
2022/06/24 10:03:17;;;;;;;27.33;17.80;;;24.00;99.90;;;;;;5068024;28;20033;-82
2022/06/24 10:05:49;;;;;;;25.90;18.42;;;24.10;99.90;;;;;;5058616;28;20035;-82
2022/06/24 10:08:19;;;;;;;23.48;16.83;;;24.20;99.90;;;;;;5071889;28;20420;-82
2022/06/24 10:10:50;;;;;;;22.80;15.13;;;24.30;99.90;;;;;;5065468;28;20040;-79
2022/06/24 10:13:24;;;;;;;17.20;11.60;;;24.40;99.90;;;;;;5064780;28;20147;-83
2022/06/24 10:15:54;;;;;;;17.20;10.93;;;24.50;99.90;;;;;;5063749;28;20025;-82
2022/06/24 10:18:28;;;;;;;21.02;12.02;;;24.40;99.90;;;;;;5064701;28;20126;-82
2022/06/24 10:20:58;;;;;;;13.30;10.18;;;24.50;99.90;;;;;;5084558;28;20090;-81
2022/06/24 10:23:49;;;;;;;15.70;9.60;;;24.50;99.90;;;;;;5055727;28;20050;-83
2022/06/24 10:26:32;;;;;;;9.57;6.72;;;24.60;99.90;;;;;;5081945;28;20029;-83
2022/06/24 10:29:04;;;;;;;7.40;5.82;;;24.70;99.90;;;;;;5073735;28;20051;-84
2022/06/24 10:31:56;;;;;;;9.13;5.88;;;24.80;99.90;;;;;;5077623;28;20488;-81
2022/06/24 10:34:22;;;;;;;6.95;5.88;;;24.80;99.90;;;;;;5068501;28;20032;-86
2022/06/24 10:36:49;;;;;;;7.05;5.07;;;24.70;99.90;;;;;;5070384;28;20040;-87
2022/06/24 10:39:20;;;;;;;6.53;4.72;;;24.60;99.90;;;;;;5066072;28;20032;-77
2022/06/24 10:41:46;;;;;;;9.15;5.43;;;24.50;99.90;;;;;;5086927;28;20033;-78
2022/06/24 10:44:29;;;;;;;9.05;5.20;;;24.50;99.90;;;;;;5094674;28;20032;-78
2022/06/24 10:47:12;;;;;;;6.10;4.78;;;24.50;99.90;;;;;;5098031;28;20031;-78
2022/06/24 10:49:55;;;;;;;9.52;5.38;;;24.60;99.90;;;;;;5093453;28;20012;-78
2022/06/24 10:52:50;;;;;;;7.85;4.90;;;24.70;99.90;;;;;;5080301;28;20024;-80
2022/06/24 10:55:16;;;;;;;12.23;8.37;;;24.60;99.90;;;;;;5061832;28;20550;-77
2022/06/24 10:57:45;;;;;;;38.25;27.67;;;24.50;99.90;;;;;;5068546;28;20333;-78
2022/06/24 11:00:13;;;;;;;9.77;6.68;;;24.50;99.90;;;;;;5071088;28;20465;-76
2022/06/24 11:02:39;;;;;;;6.78;3.53;;;24.50;99.90;;;;;;5065885;28;20068;-82
2022/06/24 11:05:19;;;;;;;4.80;3.53;;;24.50;99.90;;;;;;5073283;28;20059;-78
2022/06/24 11:07:49;;;;;;;5.25;3.08;;;24.40;99.90;;;;;;5064501;28;20503;-77
2022/06/24 11:10:27;;;;;;;5.47;3.50;;;24.20;99.90;;;;;;5064441;28;20092;-77
2022/06/24 11:12:57;;;;;;;7.15;3.38;;;24.10;99.90;;;;;;5062409;28;20038;-77
2022/06/24 11:15:40;;;;;;;5.72;3.30;;;24.00;99.90;;;;;;5063146;28;20035;-77
2022/06/24 11:18:17;;;;;;;5.95;3.42;;;24.00;99.90;;;;;;5060360;28;20056;-78
2022/06/24 11:20:46;;;;;;;5.20;3.78;;;23.90;99.90;;;;;;5077772;28;20101;-78
2022/06/24 11:23:14;;;;;;;6.28;3.95;;;23.70;99.90;;;;;;5072652;28;20192;-78
2022/06/24 11:26:04;;;;;;;6.70;3.83;;;23.60;99.90;;;;;;5070734;28;20021;-80
2022/06/24 11:28:33;;;;;;;8.23;4.40;;;23.60;99.90;;;;;;5067165;28;20049;-80
2022/06/24 11:31:19;;;;;;;6.03;3.60;;;23.60;99.90;;;;;;5068355;28;20016;-81
2022/06/24 11:34:09;;;;;;;4.85;2.70;;;23.60;99.90;;;;;;5075108;28;20025;-80
2022/06/24 11:36:37;;;;;;;3.90;2.53;;;23.60;99.90;;;;;;5057685;28;20423;-81
2022/06/24 11:39:05;;;;;;;8.43;3.80;;;23.70;99.90;;;;;;5059822;28;20047;-81
2022/06/24 11:41:33;;;;;;;7.38;3.53;;;23.90;99.90;;;;;;5061897;28;20032;-81
2022/06/24 11:43:59;;;;;;;7.22;3.20;;;24.10;99.90;;;;;;5069976;28;20054;-81
2022/06/24 11:46:24;;;;;;;5.57;3.20;;;24.20;99.90;;;;;;5072230;28;20033;-82
2022/06/24 11:49:04;;;;;;;5.40;3.20;;;24.30;99.90;;;;;;5049986;28;20016;-81
2022/06/24 11:51:30;;;;;;;7.70;3.53;;;24.50;99.90;;;;;;5067761;28;20484;-81
2022/06/24 11:53:59;;;;;;;7.00;3.55;;;24.70;99.90;;;;;;5067243;28;20088;-81
2022/06/24 11:56:33;;;;;;;5.32;3.13;;;24.90;99.90;;;;;;5068503;28;20024;-81
2022/06/24 11:58:59;;;;;;;6.53;4.10;;;25.20;99.90;;;;;;5063601;28;20052;-81
2022/06/24 12:01:27;;;;;;;5.93;3.50;;;25.30;99.30;;;;;;5069693;28;20032;-78
2022/06/24 12:03:54;;;;;;;8.25;4.53;;;25.50;99.10;;;;;;5072183;28;20055;-82
2022/06/24 12:06:20;;;;;;;6.30;4.18;;;25.60;98.20;;;;;;5059889;28;20031;-82
2022/06/24 12:08:48;;;;;;;7.80;4.28;;;25.70;97.50;;;;;;5058991;28;20481;-86
2022/06/24 12:11:18;;;;;;;6.53;4.22;;;25.80;97.00;;;;;;5063078;28;20025;-79
2022/06/24 12:14:04;;;;;;;9.45;4.10;;;26.00;97.10;;;;;;5066327;28;20614;-80
2022/06/24 12:16:54;;;;;;;6.75;3.97;;;26.30;96.80;;;;;;5058983;28;20115;-85
2022/06/24 12:19:20;;;;;;;8.68;4.43;;;26.60;96.20;;;;;;5062494;28;20271;-89
2022/06/24 12:21:46;;;;;;;7.55;4.72;;;26.80;95.30;;;;;;5066118;28;20033;-89
2022/06/24 12:24:23;;;;;;;10.95;3.80;;;26.80;94.00;;;;;;5069678;28;20033;-80
2022/06/24 12:26:51;;;;;;;5.13;3.28;;;26.70;93.20;;;;;;5071170;28;20020;-81
2022/06/24 12:29:29;;;;;;;5.05;3.10;;;26.60;93.20;;;;;;5093438;28;20056;-80
2022/06/24 12:31:54;;;;;;;4.65;2.90;;;26.60;92.50;;;;;;5095557;28;20012;-80
2022/06/24 12:34:36;;;;;;;6.70;4.00;;;26.50;92.00;;;;;;5096371;28;20028;-80
2022/06/24 12:37:05;;;;;;;5.63;3.55;;;26.30;91.10;;;;;;5095992;28;20023;-80
2022/06/24 12:39:36;;;;;;;5.50;3.97;;;26.20;90.80;;;;;;5093828;28;20042;-82
2022/06/24 12:42:03;;;;;;;7.57;4.13;;;25.90;91.30;;;;;;5096493;28;20024;-80
2022/06/24 12:44:42;;;;;;;7.32;4.30;;;25.90;91.60;;;;;;5095843;28;20067;-81